Terminal Aerodrome Forecast
Issued by NWS Wilmington, OH

Current Version | Previous Version | Text Only | Print | Product List | Glossary Off
Versions: 1 2 3 4 5 6 7 8 9 10 11 12 13 14 15 16 17 18 19

000
FTUS41 KILN 302300
TAFDAY
TAF
KDAY 302340Z 3100/3124 21009KT P6SM SCT050 OVC120
     FM310600 21009KT P6SM VCSH SCT020 OVC050
     FM310900 21007KT 4SM -SHRA BR OVC012
     FM311300 21008KT 5SM BR OVC008
     FM311600 21010KT P6SM BKN018 OVC050
     FM311800 21011KT P6SM BKN040=

USA.gov is the U.S. government's official web portal to all federal, state and local government web resources and services.